sensor_id;sensor_type;location;lat;lon;timestamp;temperature;humidity
20722;DHT22;10522;52.198;9.890;2023-12-20T00:00:38;7.70;99.90
20722;DHT22;10522;52.198;9.890;2023-12-20T00:03:03;7.70;99.90
20722;DHT22;10522;52.198;9.890;2023-12-20T00:05:29;7.70;99.90
20722;DHT22;10522;52.198;9.890;2023-12-20T00:07:57;7.70;99.90
20722;DHT22;10522;52.198;9.890;2023-12-20T00:10:23;7.80;99.90
20722;DHT22;10522;52.198;9.890;2023-12-20T00:12:48;7.70;99.90
20722;DHT22;10522;52.198;9.890;2023-12-20T00:15:14;7.70;99.90
20722;DHT22;10522;52.198;9.890;2023-12-20T00:17:40;7.70;99.90
20722;DHT22;10522;52.198;9.890;2023-12-20T00:20:06;7.70;99.90
20722;DHT22;10522;52.198;9.890;2023-12-20T00:22:32;7.70;99.90
20722;DHT22;10522;52.198;9.890;2023-12-20T00:24:57;7.70;99.90
20722;DHT22;10522;52.198;9.890;2023-12-20T00:27:23;7.70;99.90
20722;DHT22;10522;52.198;9.890;2023-12-20T00:29:48;7.70;99.90
20722;DHT22;10522;52.198;9.890;2023-12-20T00:32:15;7.70;99.90
20722;DHT22;10522;52.198;9.890;2023-12-20T00:34:41;7.70;99.90
20722;DHT22;10522;52.198;9.890;2023-12-20T00:37:07;7.60;99.90
20722;DHT22;10522;52.198;9.890;2023-12-20T00:39:32;7.60;99.90
20722;DHT22;10522;52.198;9.890;2023-12-20T00:41:58;7.60;99.90
20722;DHT22;10522;52.198;9.890;2023-12-20T00:44:24;7.40;99.90
20722;DHT22;10522;52.198;9.890;2023-12-20T00:46:49;7.40;99.90
20722;DHT22;10522;52.198;9.890;2023-12-20T00:49:15;7.30;99.90
20722;DHT22;10522;52.198;9.890;2023-12-20T00:51:40;7.30;99.90
20722;DHT22;10522;52.198;9.890;2023-12-20T00:54:06;7.20;99.90
20722;DHT22;10522;52.198;9.890;2023-12-20T00:56:31;7.20;99.90
20722;DHT22;10522;52.198;9.890;2023-12-20T00:58:57;7.10;99.90
20722;DHT22;10522;52.198;9.890;2023-12-20T01:01:22;7.00;99.90
20722;DHT22;10522;52.198;9.890;2023-12-20T01:03:48;6.90;99.90
20722;DHT22;10522;52.198;9.890;2023-12-20T01:06:16;6.80;99.90
20722;DHT22;10522;52.198;9.890;2023-12-20T01:08:42;6.80;99.90
20722;DHT22;10522;52.198;9.890;2023-12-20T01:11:07;6.70;99.90
20722;DHT22;10522;52.198;9.890;2023-12-20T01:13:33;6.70;99.90
20722;DHT22;10522;52.198;9.890;2023-12-20T01:15:59;6.60;99.90
20722;DHT22;10522;52.198;9.890;2023-12-20T01:18:24;6.60;99.90
20722;DHT22;10522;52.198;9.890;2023-12-20T01:20:50;6.50;99.90
20722;DHT22;10522;52.198;9.890;2023-12-20T01:23:15;6.50;99.90
20722;DHT22;10522;52.198;9.890;2023-12-20T01:25:41;6.40;99.90
20722;DHT22;10522;52.198;9.890;2023-12-20T01:28:06;6.40;99.90
20722;DHT22;10522;52.198;9.890;2023-12-20T01:30:32;6.30;99.90
20722;DHT22;10522;52.198;9.890;2023-12-20T01:33:00;6.30;99.90
20722;DHT22;10522;52.198;9.890;2023-12-20T01:35:25;6.20;99.90
20722;DHT22;10522;52.198;9.890;2023-12-20T01:37:51;6.20;99.90
20722;DHT22;10522;52.198;9.890;2023-12-20T01:40:16;6.10;99.90
20722;DHT22;10522;52.198;9.890;2023-12-20T01:42:42;6.00;99.90
20722;DHT22;10522;52.198;9.890;2023-12-20T01:45:08;6.00;99.90
20722;DHT22;10522;52.198;9.890;2023-12-20T01:47:34;5.90;99.90
20722;DHT22;10522;52.198;9.890;2023-12-20T01:49:59;6.00;99.90
20722;DHT22;10522;52.198;9.890;2023-12-20T01:52:26;5.90;99.90
20722;DHT22;10522;52.198;9.890;2023-12-20T01:54:53;5.90;99.90
20722;DHT22;10522;52.198;9.890;2023-12-20T01:57:20;5.90;99.90
20722;DHT22;10522;52.198;9.890;2023-12-20T01:59:46;6.00;99.90
20722;DHT22;10522;52.198;9.890;2023-12-20T02:02:12;6.00;99.90
20722;DHT22;10522;52.198;9.890;2023-12-20T02:04:38;6.00;99.90
20722;DHT22;10522;52.198;9.890;2023-12-20T02:07:03;6.00;99.90
20722;DHT22;10522;52.198;9.890;2023-12-20T02:09:29;6.00;99.90
20722;DHT22;10522;52.198;9.890;2023-12-20T02:11:55;6.00;99.90
20722;DHT22;10522;52.198;9.890;2023-12-20T02:14:21;6.10;99.90
20722;DHT22;10522;52.198;9.890;2023-12-20T02:16:47;6.10;99.90
20722;DHT22;10522;52.198;9.890;2023-12-20T02:19:14;6.10;99.90
20722;DHT22;10522;52.198;9.890;2023-12-20T02:21:40;6.10;99.90
20722;DHT22;10522;52.198;9.890;2023-12-20T02:24:06;6.10;99.90
20722;DHT22;10522;52.198;9.890;2023-12-20T02:26:34;6.10;99.90
20722;DHT22;10522;52.198;9.890;2023-12-20T02:29:00;6.10;99.90
20722;DHT22;10522;52.198;9.890;2023-12-20T02:31:26;6.10;99.90
20722;DHT22;10522;52.198;9.890;2023-12-20T02:33:52;6.00;99.90
20722;DHT22;10522;52.198;9.890;2023-12-20T02:36:18;5.90;99.90
20722;DHT22;10522;52.198;9.890;2023-12-20T02:38:43;5.80;99.90
20722;DHT22;10522;52.198;9.890;2023-12-20T02:41:09;5.70;99.90
20722;DHT22;10522;52.198;9.890;2023-12-20T02:43:34;5.60;99.90
20722;DHT22;10522;52.198;9.890;2023-12-20T02:46:00;5.50;99.90
20722;DHT22;10522;52.198;9.890;2023-12-20T02:48:26;5.40;99.90
20722;DHT22;10522;52.198;9.890;2023-12-20T02:50:51;5.50;99.90
20722;DHT22;10522;52.198;9.890;2023-12-20T02:53:17;5.50;99.90
20722;DHT22;10522;52.198;9.890;2023-12-20T02:55:42;5.50;99.90
20722;DHT22;10522;52.198;9.890;2023-12-20T02:58:11;5.40;99.90
20722;DHT22;10522;52.198;9.890;2023-12-20T03:00:37;5.40;99.90
20722;DHT22;10522;52.198;9.890;2023-12-20T03:03:02;5.40;99.90
20722;DHT22;10522;52.198;9.890;2023-12-20T03:05:28;5.50;99.90
20722;DHT22;10522;52.198;9.890;2023-12-20T03:07:57;5.50;99.90
20722;DHT22;10522;52.198;9.890;2023-12-20T03:10:23;5.50;99.90
20722;DHT22;10522;52.198;9.890;2023-12-20T03:12:48;5.60;99.90
20722;DHT22;10522;52.198;9.890;2023-12-20T03:15:14;5.50;99.90
20722;DHT22;10522;52.198;9.890;2023-12-20T03:17:40;5.40;99.90
20722;DHT22;10522;52.198;9.890;2023-12-20T03:20:06;5.30;99.90
20722;DHT22;10522;52.198;9.890;2023-12-20T03:22:31;5.40;99.90
20722;DHT22;10522;52.198;9.890;2023-12-20T03:24:57;5.40;99.90
20722;DHT22;10522;52.198;9.890;2023-12-20T03:27:23;5.50;99.90
20722;DHT22;10522;52.198;9.890;2023-12-20T03:29:48;5.40;99.90
20722;DHT22;10522;52.198;9.890;2023-12-20T03:32:14;5.40;99.90
20722;DHT22;10522;52.198;9.890;2023-12-20T03:34:40;5.40;99.90
20722;DHT22;10522;52.198;9.890;2023-12-20T03:37:05;5.30;99.90
20722;DHT22;10522;52.198;9.890;2023-12-20T03:39:31;5.30;99.90
20722;DHT22;10522;52.198;9.890;2023-12-20T03:41:56;5.30;99.90
20722;DHT22;10522;52.198;9.890;2023-12-20T03:44:22;5.20;99.90
20722;DHT22;10522;52.198;9.890;2023-12-20T03:46:47;5.30;99.90
20722;DHT22;10522;52.198;9.890;2023-12-20T03:49:14;5.20;99.90
20722;DHT22;10522;52.198;9.890;2023-12-20T03:51:40;5.30;99.90
20722;DHT22;10522;52.198;9.890;2023-12-20T03:54:05;5.30;99.90
20722;DHT22;10522;52.198;9.890;2023-12-20T03:56:31;5.40;99.90
20722;DHT22;10522;52.198;9.890;2023-12-20T03:58:57;5.40;99.90
20722;DHT22;10522;52.198;9.890;2023-12-20T04:01:23;5.50;99.90
20722;DHT22;10522;52.198;9.890;2023-12-20T04:03:48;5.50;99.90
20722;DHT22;10522;52.198;9.890;2023-12-20T04:06:18;5.50;99.90
20722;DHT22;10522;52.198;9.890;2023-12-20T04:08:44;5.50;99.90
20722;DHT22;10522;52.198;9.890;2023-12-20T04:11:09;5.60;99.90
20722;DHT22;10522;52.198;9.890;2023-12-20T04:13:35;5.60;99.90
20722;DHT22;10522;52.198;9.890;2023-12-20T04:16:00;5.70;99.90
20722;DHT22;10522;52.198;9.890;2023-12-20T04:18:26;5.70;99.90
20722;DHT22;10522;52.198;9.890;2023-12-20T04:20:53;5.90;99.90
20722;DHT22;10522;52.198;9.890;2023-12-20T04:23:19;5.80;99.90
20722;DHT22;10522;52.198;9.890;2023-12-20T04:25:44;5.80;99.90
20722;DHT22;10522;52.198;9.890;2023-12-20T04:28:11;5.90;99.90
20722;DHT22;10522;52.198;9.890;2023-12-20T04:30:37;5.80;99.90
20722;DHT22;10522;52.198;9.890;2023-12-20T04:33:02;5.80;99.90
20722;DHT22;10522;52.198;9.890;2023-12-20T04:35:28;5.80;99.90
20722;DHT22;10522;52.198;9.890;2023-12-20T04:37:54;5.80;99.90
20722;DHT22;10522;52.198;9.890;2023-12-20T04:40:19;5.90;99.90
20722;DHT22;10522;52.198;9.890;2023-12-20T04:42:45;5.90;99.90
20722;DHT22;10522;52.198;9.890;2023-12-20T04:45:11;6.00;99.90
20722;DHT22;10522;52.198;9.890;2023-12-20T04:47:38;6.00;99.90
20722;DHT22;10522;52.198;9.890;2023-12-20T04:50:05;6.00;99.90
20722;DHT22;10522;52.198;9.890;2023-12-20T04:52:30;6.00;99.90
20722;DHT22;10522;52.198;9.890;2023-12-20T04:54:56;6.00;99.90
20722;DHT22;10522;52.198;9.890;2023-12-20T04:57:22;6.00;99.90
20722;DHT22;10522;52.198;9.890;2023-12-20T04:59:47;6.00;99.90
20722;DHT22;10522;52.198;9.890;2023-12-20T05:02:13;6.00;99.90
20722;DHT22;10522;52.198;9.890;2023-12-20T05:04:38;5.90;99.90
20722;DHT22;10522;52.198;9.890;2023-12-20T05:07:04;5.90;99.90
20722;DHT22;10522;52.198;9.890;2023-12-20T05:09:30;5.90;99.90
20722;DHT22;10522;52.198;9.890;2023-12-20T05:11:56;6.00;99.90
20722;DHT22;10522;52.198;9.890;2023-12-20T05:14:21;6.00;99.90
20722;DHT22;10522;52.198;9.890;2023-12-20T05:16:47;5.90;99.90
20722;DHT22;10522;52.198;9.890;2023-12-20T05:19:12;5.90;99.90
20722;DHT22;10522;52.198;9.890;2023-12-20T05:21:39;5.90;99.90
20722;DHT22;10522;52.198;9.890;2023-12-20T05:24:05;6.00;99.90
20722;DHT22;10522;52.198;9.890;2023-12-20T05:26:30;6.00;99.90
20722;DHT22;10522;52.198;9.890;2023-12-20T05:28:56;6.00;99.90
20722;DHT22;10522;52.198;9.890;2023-12-20T05:31:21;6.00;99.90
20722;DHT22;10522;52.198;9.890;2023-12-20T05:33:47;6.10;99.90
20722;DHT22;10522;52.198;9.890;2023-12-20T05:36:13;6.10;99.90
20722;DHT22;10522;52.198;9.890;2023-12-20T05:38:40;6.20;99.90
20722;DHT22;10522;52.198;9.890;2023-12-20T05:41:06;6.10;99.90
20722;DHT22;10522;52.198;9.890;2023-12-20T05:43:31;6.10;99.90
20722;DHT22;10522;52.198;9.890;2023-12-20T05:45:58;6.10;99.90
20722;DHT22;10522;52.198;9.890;2023-12-20T05:48:23;6.10;99.90
20722;DHT22;10522;52.198;9.890;2023-12-20T05:50:49;6.10;99.90
20722;DHT22;10522;52.198;9.890;2023-12-20T05:53:14;6.10;99.90
20722;DHT22;10522;52.198;9.890;2023-12-20T05:55:40;6.10;99.90
20722;DHT22;10522;52.198;9.890;2023-12-20T05:58:06;6.10;99.90
20722;DHT22;10522;52.198;9.890;2023-12-20T06:00:31;6.20;99.90
20722;DHT22;10522;52.198;9.890;2023-12-20T06:02:57;6.00;99.90
20722;DHT22;10522;52.198;9.890;2023-12-20T06:05:22;6.00;99.90
20722;DHT22;10522;52.198;9.890;2023-12-20T06:07:49;6.00;99.90
20722;DHT22;10522;52.198;9.890;2023-12-20T06:10:16;6.00;99.90
20722;DHT22;10522;52.198;9.890;2023-12-20T06:12:42;6.00;99.90
20722;DHT22;10522;52.198;9.890;2023-12-20T06:15:07;6.00;99.90
20722;DHT22;10522;52.198;9.890;2023-12-20T06:17:33;5.90;99.90
20722;DHT22;10522;52.198;9.890;2023-12-20T06:20:00;5.90;99.90
20722;DHT22;10522;52.198;9.890;2023-12-20T06:22:26;5.80;99.90
20722;DHT22;10522;52.198;9.890;2023-12-20T06:24:51;5.70;99.90
20722;DHT22;10522;52.198;9.890;2023-12-20T06:27:17;5.70;99.90
20722;DHT22;10522;52.198;9.890;2023-12-20T06:29:45;5.80;99.90
20722;DHT22;10522;52.198;9.890;2023-12-20T06:32:11;5.80;99.90
20722;DHT22;10522;52.198;9.890;2023-12-20T06:34:36;5.90;99.90
20722;DHT22;10522;52.198;9.890;2023-12-20T06:37:03;6.00;99.90
20722;DHT22;10522;52.198;9.890;2023-12-20T06:39:30;6.00;99.90
20722;DHT22;10522;52.198;9.890;2023-12-20T06:41:56;5.90;99.90
20722;DHT22;10522;52.198;9.890;2023-12-20T06:44:21;5.90;99.90
20722;DHT22;10522;52.198;9.890;2023-12-20T06:46:47;5.90;99.90
20722;DHT22;10522;52.198;9.890;2023-12-20T06:49:13;5.80;99.90
20722;DHT22;10522;52.198;9.890;2023-12-20T06:51:38;5.70;99.90
20722;DHT22;10522;52.198;9.890;2023-12-20T06:54:04;5.70;99.90
20722;DHT22;10522;52.198;9.890;2023-12-20T06:56:30;5.70;99.90
20722;DHT22;10522;52.198;9.890;2023-12-20T06:58:55;5.60;99.90
20722;DHT22;10522;52.198;9.890;2023-12-20T07:01:21;5.80;99.90
20722;DHT22;10522;52.198;9.890;2023-12-20T07:03:55;5.80;99.90
20722;DHT22;10522;52.198;9.890;2023-12-20T07:06:20;5.80;99.90
20722;DHT22;10522;52.198;9.890;2023-12-20T07:08:47;5.80;99.90
20722;DHT22;10522;52.198;9.890;2023-12-20T07:11:13;5.70;99.90
20722;DHT22;10522;52.198;9.890;2023-12-20T07:13:38;5.70;99.90
20722;DHT22;10522;52.198;9.890;2023-12-20T07:16:04;5.70;99.90
20722;DHT22;10522;52.198;9.890;2023-12-20T07:18:30;5.70;99.90
20722;DHT22;10522;52.198;9.890;2023-12-20T07:20:55;5.80;99.90
20722;DHT22;10522;52.198;9.890;2023-12-20T07:23:21;5.70;99.90
20722;DHT22;10522;52.198;9.890;2023-12-20T07:25:47;5.80;99.90
20722;DHT22;10522;52.198;9.890;2023-12-20T07:28:12;5.80;99.90
20722;DHT22;10522;52.198;9.890;2023-12-20T07:30:38;5.80;99.90
20722;DHT22;10522;52.198;9.890;2023-12-20T07:33:04;5.90;99.90
20722;DHT22;10522;52.198;9.890;2023-12-20T07:35:30;5.70;99.90
20722;DHT22;10522;52.198;9.890;2023-12-20T07:37:56;5.60;99.90
20722;DHT22;10522;52.198;9.890;2023-12-20T07:40:21;5.60;99.90
20722;DHT22;10522;52.198;9.890;2023-12-20T07:42:47;5.60;99.90
20722;DHT22;10522;52.198;9.890;2023-12-20T07:45:12;5.70;99.90
20722;DHT22;10522;52.198;9.890;2023-12-20T07:47:38;5.80;99.90
20722;DHT22;10522;52.198;9.890;2023-12-20T07:50:04;6.00;99.90
20722;DHT22;10522;52.198;9.890;2023-12-20T07:52:30;5.90;99.90
20722;DHT22;10522;52.198;9.890;2023-12-20T07:54:55;5.90;99.90
20722;DHT22;10522;52.198;9.890;2023-12-20T07:57:21;6.00;99.90
20722;DHT22;10522;52.198;9.890;2023-12-20T07:59:47;6.00;99.90
20722;DHT22;10522;52.198;9.890;2023-12-20T08:02:12;6.00;99.90
20722;DHT22;10522;52.198;9.890;2023-12-20T08:04:41;6.00;99.90
20722;DHT22;10522;52.198;9.890;2023-12-20T08:07:07;6.10;99.90
20722;DHT22;10522;52.198;9.890;2023-12-20T08:09:32;6.00;99.90
20722;DHT22;10522;52.198;9.890;2023-12-20T08:11:59;6.10;99.90
20722;DHT22;10522;52.198;9.890;2023-12-20T08:14:25;6.10;99.90
20722;DHT22;10522;52.198;9.890;2023-12-20T08:16:50;6.10;99.90
20722;DHT22;10522;52.198;9.890;2023-12-20T08:19:16;6.30;99.90
20722;DHT22;10522;52.198;9.890;2023-12-20T08:21:42;6.10;99.90
20722;DHT22;10522;52.198;9.890;2023-12-20T08:24:08;6.10;99.90
20722;DHT22;10522;52.198;9.890;2023-12-20T08:26:34;6.20;99.90
20722;DHT22;10522;52.198;9.890;2023-12-20T08:28:59;6.20;99.90
20722;DHT22;10522;52.198;9.890;2023-12-20T08:31:25;6.30;99.90
20722;DHT22;10522;52.198;9.890;2023-12-20T08:33:51;6.20;99.90
20722;DHT22;10522;52.198;9.890;2023-12-20T08:36:19;6.20;99.90
20722;DHT22;10522;52.198;9.890;2023-12-20T08:38:46;6.20;99.90
20722;DHT22;10522;52.198;9.890;2023-12-20T08:41:12;6.10;99.90
20722;DHT22;10522;52.198;9.890;2023-12-20T08:43:38;6.20;99.90
20722;DHT22;10522;52.198;9.890;2023-12-20T08:46:05;6.20;99.90
20722;DHT22;10522;52.198;9.890;2023-12-20T08:48:31;6.20;99.90
20722;DHT22;10522;52.198;9.890;2023-12-20T08:50:57;6.30;99.90
20722;DHT22;10522;52.198;9.890;2023-12-20T08:53:22;6.30;99.90
20722;DHT22;10522;52.198;9.890;2023-12-20T08:55:48;6.40;99.90
20722;DHT22;10522;52.198;9.890;2023-12-20T08:58:14;6.40;99.90
20722;DHT22;10522;52.198;9.890;2023-12-20T09:00:40;6.40;99.90
20722;DHT22;10522;52.198;9.890;2023-12-20T09:03:06;6.50;99.90
20722;DHT22;10522;52.198;9.890;2023-12-20T09:05:31;6.50;99.90
20722;DHT22;10522;52.198;9.890;2023-12-20T09:07:57;6.50;99.90
20722;DHT22;10522;52.198;9.890;2023-12-20T09:10:23;6.40;99.90
20722;DHT22;10522;52.198;9.890;2023-12-20T09:17:53;6.30;99.90
20722;DHT22;10522;52.198;9.890;2023-12-20T09:20:19;6.30;99.90
20722;DHT22;10522;52.198;9.890;2023-12-20T09:22:45;6.30;99.90
20722;DHT22;10522;52.198;9.890;2023-12-20T09:25:11;6.30;99.90
20722;DHT22;10522;52.198;9.890;2023-12-20T09:27:38;6.40;99.90
20722;DHT22;10522;52.198;9.890;2023-12-20T09:30:04;6.40;99.90
20722;DHT22;10522;52.198;9.890;2023-12-20T09:32:31;6.50;99.90
20722;DHT22;10522;52.198;9.890;2023-12-20T09:34:56;6.50;99.90
20722;DHT22;10522;52.198;9.890;2023-12-20T09:37:25;6.50;99.90
20722;DHT22;10522;52.198;9.890;2023-12-20T09:39:51;6.60;99.90
20722;DHT22;10522;52.198;9.890;2023-12-20T09:42:24;6.60;99.90
20722;DHT22;10522;52.198;9.890;2023-12-20T09:44:50;6.50;99.90
20722;DHT22;10522;52.198;9.890;2023-12-20T09:47:20;6.50;99.90
20722;DHT22;10522;52.198;9.890;2023-12-20T09:49:48;6.60;99.90
20722;DHT22;10522;52.198;9.890;2023-12-20T09:52:15;6.60;99.90
20722;DHT22;10522;52.198;9.890;2023-12-20T09:54:43;6.80;99.90
20722;DHT22;10522;52.198;9.890;2023-12-20T09:57:09;6.60;99.90
20722;DHT22;10522;52.198;9.890;2023-12-20T09:59:35;6.70;99.90
20722;DHT22;10522;52.198;9.890;2023-12-20T10:02:01;6.80;99.90
20722;DHT22;10522;52.198;9.890;2023-12-20T10:04:31;6.90;99.90
20722;DHT22;10522;52.198;9.890;2023-12-20T10:07:02;6.90;99.90
20722;DHT22;10522;52.198;9.890;2023-12-20T10:09:31;7.00;99.90
20722;DHT22;10522;52.198;9.890;2023-12-20T10:11:57;6.90;99.90
20722;DHT22;10522;52.198;9.890;2023-12-20T10:14:23;6.90;99.90
20722;DHT22;10522;52.198;9.890;2023-12-20T10:16:49;6.80;99.90
20722;DHT22;10522;52.198;9.890;2023-12-20T10:19:19;6.90;99.90
20722;DHT22;10522;52.198;9.890;2023-12-20T10:21:45;6.90;99.90
20722;DHT22;10522;52.198;9.890;2023-12-20T10:24:17;6.90;99.90
20722;DHT22;10522;52.198;9.890;2023-12-20T10:26:42;6.80;99.90
20722;DHT22;10522;52.198;9.890;2023-12-20T10:29:08;6.80;99.90
20722;DHT22;10522;52.198;9.890;2023-12-20T10:31:34;6.80;99.90
20722;DHT22;10522;52.198;9.890;2023-12-20T10:34:01;6.80;99.90
20722;DHT22;10522;52.198;9.890;2023-12-20T10:36:32;6.80;99.90
20722;DHT22;10522;52.198;9.890;2023-12-20T10:38:59;6.80;99.90
20722;DHT22;10522;52.198;9.890;2023-12-20T10:41:29;6.90;99.90
20722;DHT22;10522;52.198;9.890;2023-12-20T10:43:59;7.10;99.90
20722;DHT22;10522;52.198;9.890;2023-12-20T10:46:26;7.20;99.90
20722;DHT22;10522;52.198;9.890;2023-12-20T10:48:54;7.30;99.90
20722;DHT22;10522;52.198;9.890;2023-12-20T10:51:20;7.20;99.90
20722;DHT22;10522;52.198;9.890;2023-12-20T10:53:51;7.10;99.90
20722;DHT22;10522;52.198;9.890;2023-12-20T10:56:18;7.10;99.90
20722;DHT22;10522;52.198;9.890;2023-12-20T10:58:45;7.00;99.90
20722;DHT22;10522;52.198;9.890;2023-12-20T11:01:19;7.10;99.90
20722;DHT22;10522;52.198;9.890;2023-12-20T11:03:49;7.10;99.90
20722;DHT22;10522;52.198;9.890;2023-12-20T11:08:47;7.10;99.90
20722;DHT22;10522;52.198;9.890;2023-12-20T11:11:29;7.10;99.90
20722;DHT22;10522;52.198;9.890;2023-12-20T11:16:25;6.90;99.90
20722;DHT22;10522;52.198;9.890;2023-12-20T11:18:51;6.70;99.90
20722;DHT22;10522;52.198;9.890;2023-12-20T11:21:16;6.60;99.90
20722;DHT22;10522;52.198;9.890;2023-12-20T11:23:42;6.60;99.90
20722;DHT22;10522;52.198;9.890;2023-12-20T11:26:08;6.60;99.90
20722;DHT22;10522;52.198;9.890;2023-12-20T11:28:34;6.60;99.90
20722;DHT22;10522;52.198;9.890;2023-12-20T11:31:01;6.60;99.90
20722;DHT22;10522;52.198;9.890;2023-12-20T11:33:35;6.50;99.90
20722;DHT22;10522;52.198;9.890;2023-12-20T11:36:01;6.60;99.90
20722;DHT22;10522;52.198;9.890;2023-12-20T11:38:35;6.60;99.90
20722;DHT22;10522;52.198;9.890;2023-12-20T11:41:01;6.60;99.90
20722;DHT22;10522;52.198;9.890;2023-12-20T11:46:08;6.50;99.90
20722;DHT22;10522;52.198;9.890;2023-12-20T11:48:36;6.60;99.90
20722;DHT22;10522;52.198;9.890;2023-12-20T11:51:08;6.60;99.90
20722;DHT22;10522;52.198;9.890;2023-12-20T11:53:33;6.60;99.90
20722;DHT22;10522;52.198;9.890;2023-12-20T11:55:59;6.60;99.90
20722;DHT22;10522;52.198;9.890;2023-12-20T11:58:25;6.60;99.90
20722;DHT22;10522;52.198;9.890;2023-12-20T12:00:51;6.60;99.90
20722;DHT22;10522;52.198;9.890;2023-12-20T12:03:17;6.50;99.90
20722;DHT22;10522;52.198;9.890;2023-12-20T12:05:42;6.60;99.90
20722;DHT22;10522;52.198;9.890;2023-12-20T12:08:08;6.60;99.90
20722;DHT22;10522;52.198;9.890;2023-12-20T12:10:33;6.60;99.90
20722;DHT22;10522;52.198;9.890;2023-12-20T12:12:59;6.60;99.90
20722;DHT22;10522;52.198;9.890;2023-12-20T12:15:26;5.90;99.90
20722;DHT22;10522;52.198;9.890;2023-12-20T12:17:55;5.40;99.90
20722;DHT22;10522;52.198;9.890;2023-12-20T12:20:22;5.10;99.90
20722;DHT22;10522;52.198;9.890;2023-12-20T12:23:01;5.00;99.90
20722;DHT22;10522;52.198;9.890;2023-12-20T12:25:29;4.90;99.90
20722;DHT22;10522;52.198;9.890;2023-12-20T12:27:56;4.80;99.90
20722;DHT22;10522;52.198;9.890;2023-12-20T12:30:24;4.80;99.90
20722;DHT22;10522;52.198;9.890;2023-12-20T12:32:53;4.80;99.90
20722;DHT22;10522;52.198;9.890;2023-12-20T12:35:19;4.70;99.90
20722;DHT22;10522;52.198;9.890;2023-12-20T12:37:45;4.70;99.90
20722;DHT22;10522;52.198;9.890;2023-12-20T12:40:16;4.70;99.90
20722;DHT22;10522;52.198;9.890;2023-12-20T12:42:43;4.70;99.90
20722;DHT22;10522;52.198;9.890;2023-12-20T12:45:09;4.70;99.90
20722;DHT22;10522;52.198;9.890;2023-12-20T12:47:37;4.90;99.90
20722;DHT22;10522;52.198;9.890;2023-12-20T12:50:03;5.00;99.90
20722;DHT22;10522;52.198;9.890;2023-12-20T12:52:30;4.90;99.90
20722;DHT22;10522;52.198;9.890;2023-12-20T12:54:55;4.90;99.90
20722;DHT22;10522;52.198;9.890;2023-12-20T12:57:21;4.80;99.90
20722;DHT22;10522;52.198;9.890;2023-12-20T12:59:46;4.80;99.90
20722;DHT22;10522;52.198;9.890;2023-12-20T13:02:13;4.90;99.90
20722;DHT22;10522;52.198;9.890;2023-12-20T13:04:39;4.90;99.90
20722;DHT22;10522;52.198;9.890;2023-12-20T13:07:05;5.00;99.90
20722;DHT22;10522;52.198;9.890;2023-12-20T13:09:31;5.00;99.90
20722;DHT22;10522;52.198;9.890;2023-12-20T13:11:57;5.10;99.90
20722;DHT22;10522;52.198;9.890;2023-12-20T13:14:22;5.20;99.90
20722;DHT22;10522;52.198;9.890;2023-12-20T13:16:48;5.20;99.90
20722;DHT22;10522;52.198;9.890;2023-12-20T13:19:14;5.20;99.90
20722;DHT22;10522;52.198;9.890;2023-12-20T13:21:40;5.30;99.90
20722;DHT22;10522;52.198;9.890;2023-12-20T13:24:06;5.30;99.90
20722;DHT22;10522;52.198;9.890;2023-12-20T13:26:32;5.40;99.90
20722;DHT22;10522;52.198;9.890;2023-12-20T13:28:58;5.40;99.90
20722;DHT22;10522;52.198;9.890;2023-12-20T13:31:24;5.50;99.90
20722;DHT22;10522;52.198;9.890;2023-12-20T13:33:49;5.60;99.90
20722;DHT22;10522;52.198;9.890;2023-12-20T13:36:15;5.70;99.90
20722;DHT22;10522;52.198;9.890;2023-12-20T13:38:40;5.70;99.90
20722;DHT22;10522;52.198;9.890;2023-12-20T13:41:06;5.80;99.90
20722;DHT22;10522;52.198;9.890;2023-12-20T13:43:32;5.90;99.90
20722;DHT22;10522;52.198;9.890;2023-12-20T13:45:58;6.00;99.90
20722;DHT22;10522;52.198;9.890;2023-12-20T13:48:24;6.00;99.90
20722;DHT22;10522;52.198;9.890;2023-12-20T13:50:50;6.00;99.90
20722;DHT22;10522;52.198;9.890;2023-12-20T13:53:16;6.00;99.90
20722;DHT22;10522;52.198;9.890;2023-12-20T13:55:41;6.00;99.90
20722;DHT22;10522;52.198;9.890;2023-12-20T13:58:07;6.00;99.90
20722;DHT22;10522;52.198;9.890;2023-12-20T14:00:32;6.00;99.90
20722;DHT22;10522;52.198;9.890;2023-12-20T14:02:58;5.90;99.90
20722;DHT22;10522;52.198;9.890;2023-12-20T14:05:24;6.00;99.90
20722;DHT22;10522;52.198;9.890;2023-12-20T14:07:49;6.00;99.90
20722;DHT22;10522;52.198;9.890;2023-12-20T14:10:15;6.00;99.90
20722;DHT22;10522;52.198;9.890;2023-12-20T14:12:41;6.00;99.90
20722;DHT22;10522;52.198;9.890;2023-12-20T14:15:07;6.00;99.90
20722;DHT22;10522;52.198;9.890;2023-12-20T14:17:39;6.00;99.90
20722;DHT22;10522;52.198;9.890;2023-12-20T14:20:06;6.00;99.90
20722;DHT22;10522;52.198;9.890;2023-12-20T14:22:32;6.00;99.90
20722;DHT22;10522;52.198;9.890;2023-12-20T14:24:58;6.00;99.90
20722;DHT22;10522;52.198;9.890;2023-12-20T14:27:23;5.90;99.90
20722;DHT22;10522;52.198;9.890;2023-12-20T14:29:53;5.90;99.90
20722;DHT22;10522;52.198;9.890;2023-12-20T14:32:19;6.00;99.90
20722;DHT22;10522;52.198;9.890;2023-12-20T14:34:44;6.00;99.90
20722;DHT22;10522;52.198;9.890;2023-12-20T14:37:10;5.90;99.90
20722;DHT22;10522;52.198;9.890;2023-12-20T14:39:35;5.90;99.90
20722;DHT22;10522;52.198;9.890;2023-12-20T14:42:07;5.90;99.90
20722;DHT22;10522;52.198;9.890;2023-12-20T14:44:35;5.90;99.90
20722;DHT22;10522;52.198;9.890;2023-12-20T14:47:00;5.90;99.90
20722;DHT22;10522;52.198;9.890;2023-12-20T14:49:27;5.90;99.90
20722;DHT22;10522;52.198;9.890;2023-12-20T14:51:53;5.90;99.90
20722;DHT22;10522;52.198;9.890;2023-12-20T14:54:19;5.90;99.90
20722;DHT22;10522;52.198;9.890;2023-12-20T14:56:46;5.90;99.90
20722;DHT22;10522;52.198;9.890;2023-12-20T14:59:12;5.90;99.90
20722;DHT22;10522;52.198;9.890;2023-12-20T15:01:38;5.90;99.90
20722;DHT22;10522;52.198;9.890;2023-12-20T15:04:06;5.90;99.90
20722;DHT22;10522;52.198;9.890;2023-12-20T15:06:31;5.90;99.90
20722;DHT22;10522;52.198;9.890;2023-12-20T15:08:58;5.90;99.90
20722;DHT22;10522;52.198;9.890;2023-12-20T15:11:24;5.80;99.90
20722;DHT22;10522;52.198;9.890;2023-12-20T15:13:49;5.80;99.90
20722;DHT22;10522;52.198;9.890;2023-12-20T15:16:21;5.80;99.90
20722;DHT22;10522;52.198;9.890;2023-12-20T15:18:46;5.80;99.90
20722;DHT22;10522;52.198;9.890;2023-12-20T15:21:12;5.70;99.90
20722;DHT22;10522;52.198;9.890;2023-12-20T15:23:37;5.70;99.90
20722;DHT22;10522;52.198;9.890;2023-12-20T15:26:03;5.70;99.90
20722;DHT22;10522;52.198;9.890;2023-12-20T15:28:30;5.70;99.90
20722;DHT22;10522;52.198;9.890;2023-12-20T15:30:55;5.70;99.90
20722;DHT22;10522;52.198;9.890;2023-12-20T15:33:22;5.80;99.90
20722;DHT22;10522;52.198;9.890;2023-12-20T15:35:48;5.80;99.90
20722;DHT22;10522;52.198;9.890;2023-12-20T15:38:13;5.80;99.90
20722;DHT22;10522;52.198;9.890;2023-12-20T15:40:39;5.70;99.90
20722;DHT22;10522;52.198;9.890;2023-12-20T15:43:05;5.80;99.90
20722;DHT22;10522;52.198;9.890;2023-12-20T15:45:30;5.80;99.90
20722;DHT22;10522;52.198;9.890;2023-12-20T15:47:56;5.80;99.90
20722;DHT22;10522;52.198;9.890;2023-12-20T15:50:22;5.80;99.90